Time;durP1;ratioP1;P1;durP2;ratioP2;P2;SDS_P1;SDS_P2;PMS_P1;PMS_P2;Temp;Humidity;BMP_temperature;BMP_pressure;BME280_temperature;BME280_humidity;BME280_pressure;Samples;Min_cycle;Max_cycle;Signal;HPM_P1;HPM_P2
2021/08/08 00:00:31;;;;;;;6.22;1.73;;;13.60;99.90;;;;;;4960113;28;20051;-88
2021/08/08 00:03:21;;;;;;;6.10;1.98;;;13.60;99.90;;;;;;4963071;28;20124;-88
2021/08/08 00:06:08;;;;;;;4.45;2.00;;;13.50;99.90;;;;;;4958508;28;20051;-89
2021/08/08 00:08:56;;;;;;;7.60;1.95;;;13.40;99.90;;;;;;4954765;28;20042;-88
2021/08/08 00:11:51;;;;;;;15.77;1.98;;;13.30;99.90;;;;;;4973463;28;20045;-88
2021/08/08 00:14:38;;;;;;;3.72;1.80;;;13.20;99.90;;;;;;4968135;28;20127;-89
2021/08/08 00:17:27;;;;;;;8.88;1.95;;;13.20;99.90;;;;;;4933322;29;20070;-88
2021/08/08 00:20:14;;;;;;;9.20;2.08;;;13.20;99.90;;;;;;4952445;28;20059;-89
2021/08/08 00:23:01;;;;;;;6.55;2.10;;;13.10;99.90;;;;;;4939117;28;20039;-88
2021/08/08 00:25:56;;;;;;;9.30;1.88;;;13.20;99.90;;;;;;4940312;29;20461;-88
2021/08/08 00:28:45;;;;;;;8.95;2.35;;;13.30;99.90;;;;;;4952148;28;20130;-90
2021/08/08 00:31:32;;;;;;;9.93;1.75;;;13.30;99.90;;;;;;4951991;28;20047;-89
2021/08/08 00:34:22;;;;;;;8.25;1.75;;;13.30;99.90;;;;;;4952157;28;20411;-87
2021/08/08 00:37:10;;;;;;;11.25;2.10;;;13.30;99.90;;;;;;4954507;28;20151;-87
2021/08/08 00:40:01;;;;;;;9.85;2.15;;;13.20;99.90;;;;;;4952426;28;20085;-88
2021/08/08 00:42:49;;;;;;;19.60;2.45;;;13.20;99.90;;;;;;4956748;28;20072;-87
2021/08/08 00:45:41;;;;;;;13.23;2.88;;;13.00;99.90;;;;;;4954320;28;20134;-88
2021/08/08 00:48:30;;;;;;;20.57;2.97;;;13.00;99.90;;;;;;4942201;29;20047;-90
2021/08/08 00:51:17;;;;;;;5.95;2.10;;;13.00;99.90;;;;;;4947237;28;20341;-89
2021/08/08 00:54:05;;;;;;;9.18;2.45;;;13.00;99.90;;;;;;4955758;28;20043;-87
2021/08/08 00:56:55;;;;;;;5.25;2.30;;;13.00;99.90;;;;;;4962881;28;20067;-90
2021/08/08 00:59:42;;;;;;;7.20;2.50;;;13.00;99.90;;;;;;4962511;28;20047;-88
2021/08/08 01:02:33;;;;;;;15.60;2.55;;;12.90;99.90;;;;;;4967859;28;20062;-87
2021/08/08 01:05:46;;;;;;;5.75;2.08;;;13.00;99.90;;;;;;4947350;28;20142;-88
2021/08/08 01:08:35;;;;;;;4.00;2.60;;;13.00;99.90;;;;;;4952891;28;20129;-90
2021/08/08 01:11:26;;;;;;;8.55;2.60;;;13.00;99.90;;;;;;4965090;28;20094;-88
2021/08/08 01:14:15;;;;;;;5.43;2.28;;;13.00;99.90;;;;;;4955691;29;20149;-88
2021/08/08 01:17:04;;;;;;;5.22;2.17;;;12.90;99.90;;;;;;4972773;28;20038;-87
2021/08/08 01:20:08;;;;;;;6.18;2.28;;;13.00;99.90;;;;;;4980135;28;20136;-88
2021/08/08 01:23:03;;;;;;;6.35;2.15;;;13.10;99.90;;;;;;4959907;28;20241;-88
2021/08/08 01:25:54;;;;;;;3.97;2.22;;;13.10;99.90;;;;;;4970889;28;20156;-86
2021/08/08 01:28:44;;;;;;;4.75;2.10;;;13.10;99.90;;;;;;4974920;28;20053;-87
2021/08/08 01:31:31;;;;;;;5.45;1.98;;;13.20;99.90;;;;;;4974911;28;20452;-89
2021/08/08 01:34:26;;;;;;;7.35;2.15;;;13.20;99.90;;;;;;4946427;28;20126;-88
2021/08/08 01:37:20;;;;;;;8.93;2.35;;;13.30;99.90;;;;;;4960984;28;20061;-90
2021/08/08 01:40:08;;;;;;;8.25;1.80;;;13.30;99.90;;;;;;4977703;28;20078;-89
2021/08/08 01:42:58;;;;;;;5.90;2.10;;;13.30;99.90;;;;;;4974223;28;20117;-87
2021/08/08 01:45:48;;;;;;;4.85;1.65;;;13.30;99.90;;;;;;4961142;28;20050;-88
2021/08/08 01:48:41;;;;;;;4.22;1.83;;;13.30;99.90;;;;;;4976964;28;20047;-89
2021/08/08 01:51:30;;;;;;;3.85;1.77;;;13.20;99.90;;;;;;4971111;28;20039;-87
2021/08/08 01:54:18;;;;;;;4.60;2.03;;;13.10;99.90;;;;;;4970440;28;20050;-87
2021/08/08 01:57:08;;;;;;;4.18;1.73;;;13.10;99.90;;;;;;4968432;28;20054;-87
2021/08/08 01:59:55;;;;;;;6.88;1.90;;;13.10;99.90;;;;;;4959897;28;20047;-89
2021/08/08 02:02:56;;;;;;;6.97;2.88;;;13.10;99.90;;;;;;4970112;28;20039;-89
2021/08/08 02:05:44;;;;;;;6.28;2.53;;;13.00;99.90;;;;;;4959192;28;20090;-86
2021/08/08 02:08:31;;;;;;;7.22;2.53;;;13.00;99.90;;;;;;4971042;28;20337;-89
2021/08/08 02:11:18;;;;;;;20.35;3.03;;;12.90;99.90;;;;;;4978026;28;20148;-88
2021/08/08 02:14:11;;;;;;;5.40;2.50;;;12.80;99.90;;;;;;4943951;28;20465;-89
2021/08/08 02:16:59;;;;;;;5.18;2.33;;;12.80;99.90;;;;;;4947879;28;20066;-90
2021/08/08 02:19:48;;;;;;;3.95;2.42;;;12.80;99.90;;;;;;4959460;28;20054;-88
2021/08/08 02:22:38;;;;;;;7.97;2.50;;;12.80;99.90;;;;;;4973502;28;20046;-88
2021/08/08 02:25:26;;;;;;;8.27;2.53;;;12.80;99.90;;;;;;4970841;28;20047;-90
2021/08/08 02:28:14;;;;;;;9.40;2.72;;;12.80;99.90;;;;;;4947049;28;20361;-88
2021/08/08 02:31:04;;;;;;;7.38;2.65;;;12.80;99.90;;;;;;4960390;28;20464;-90
2021/08/08 02:33:53;;;;;;;14.77;2.67;;;12.80;99.90;;;;;;4966973;28;20083;-89
2021/08/08 02:36:42;;;;;;;8.95;2.58;;;12.80;99.90;;;;;;4976352;28;20132;-88
2021/08/08 02:39:30;;;;;;;5.22;2.47;;;12.80;99.90;;;;;;4960106;28;20133;-89
2021/08/08 02:42:18;;;;;;;6.38;2.65;;;12.70;99.90;;;;;;4960646;28;20125;-89
2021/08/08 02:45:05;;;;;;;6.68;2.40;;;12.80;99.90;;;;;;4973550;28;20109;-88
2021/08/08 02:47:52;;;;;;;9.70;3.50;;;12.80;99.90;;;;;;4969905;28;20043;-90
2021/08/08 02:50:40;;;;;;;8.02;3.10;;;12.70;99.90;;;;;;4970481;28;20058;-89
2021/08/08 02:53:29;;;;;;;8.20;3.08;;;12.70;99.90;;;;;;4961244;28;20117;-89
2021/08/08 02:56:16;;;;;;;7.80;2.53;;;12.70;99.90;;;;;;4958024;28;20443;-89
2021/08/08 02:59:03;;;;;;;10.55;2.55;;;12.60;99.90;;;;;;4973529;28;20134;-88
2021/08/08 03:01:53;;;;;;;4.10;2.45;;;12.60;99.90;;;;;;4973562;28;20141;-89
2021/08/08 03:04:41;;;;;;;9.60;2.60;;;12.60;99.90;;;;;;4965298;28;20046;-89
2021/08/08 03:07:30;;;;;;;4.18;2.50;;;12.60;99.90;;;;;;4981308;28;20046;-89
2021/08/08 03:10:17;;;;;;;4.00;2.60;;;12.60;99.90;;;;;;4943280;28;20425;-89
2021/08/08 03:13:06;;;;;;;6.25;2.70;;;12.60;99.90;;;;;;4972548;28;20035;-90
2021/08/08 03:15:57;;;;;;;7.10;2.60;;;12.70;99.90;;;;;;4966692;28;20615;-89
2021/08/08 03:18:47;;;;;;;6.47;3.10;;;12.70;99.90;;;;;;4958016;28;20044;-89
2021/08/08 03:21:35;;;;;;;5.97;2.55;;;12.60;99.90;;;;;;4969396;28;20429;-89
2021/08/08 03:24:22;;;;;;;4.65;2.60;;;12.60;99.90;;;;;;4959778;28;20460;-91
2021/08/08 03:27:09;;;;;;;8.52;2.53;;;12.50;99.90;;;;;;4960363;28;20130;-90
2021/08/08 03:29:59;;;;;;;11.07;2.88;;;12.50;99.90;;;;;;4973666;28;20129;-89
2021/08/08 03:32:46;;;;;;;5.18;2.63;;;12.30;99.90;;;;;;4957821;28;20126;-88
2021/08/08 03:35:34;;;;;;;4.03;2.58;;;12.30;99.90;;;;;;4972458;28;20194;-89
2021/08/08 03:38:29;;;;;;;6.75;2.35;;;12.30;99.90;;;;;;4971249;28;20086;-88
2021/08/08 03:41:17;;;;;;;5.50;2.80;;;12.30;99.90;;;;;;4980829;28;20061;-87
2021/08/08 03:44:12;;;;;;;10.15;2.80;;;12.30;99.90;;;;;;4956288;28;20054;-90
2021/08/08 03:46:59;;;;;;;8.60;2.55;;;12.20;99.90;;;;;;4957910;28;20125;-88
2021/08/08 03:49:47;;;;;;;11.00;2.78;;;12.20;99.90;;;;;;4970164;28;20051;-90
2021/08/08 03:52:34;;;;;;;10.20;2.50;;;12.20;99.90;;;;;;4971211;28;20583;-90
2021/08/08 03:55:22;;;;;;;8.57;3.35;;;12.20;99.90;;;;;;4972044;28;20532;-88
2021/08/08 03:58:12;;;;;;;6.20;2.67;;;12.10;99.90;;;;;;4965944;28;20125;-88
2021/08/08 04:01:01;;;;;;;7.47;3.00;;;12.10;99.90;;;;;;4970305;28;20070;-89
2021/08/08 04:03:54;;;;;;;4.60;2.90;;;12.20;99.90;;;;;;4971751;28;20456;-88
2021/08/08 04:06:44;;;;;;;9.10;3.08;;;12.20;99.90;;;;;;4956660;28;20042;-88
2021/08/08 04:09:32;;;;;;;11.02;2.95;;;12.10;99.90;;;;;;4966592;28;20146;-89
2021/08/08 04:12:19;;;;;;;8.95;2.85;;;12.00;99.90;;;;;;4961090;28;20074;-88
2021/08/08 04:15:07;;;;;;;11.98;3.30;;;12.10;99.90;;;;;;4958402;28;20482;-89
2021/08/08 04:17:55;;;;;;;13.95;2.85;;;12.10;99.90;;;;;;4951036;28;20063;-89
2021/08/08 04:20:43;;;;;;;9.48;2.80;;;12.10;99.90;;;;;;4935293;29;20047;-89
2021/08/08 04:23:30;;;;;;;5.45;2.60;;;12.10;99.90;;;;;;4945299;28;20452;-89
2021/08/08 04:26:17;;;;;;;11.80;2.72;;;12.10;99.90;;;;;;4935243;28;20047;-89
2021/08/08 04:29:05;;;;;;;8.90;2.55;;;12.10;99.90;;;;;;4934893;29;20047;-90
2021/08/08 04:31:52;;;;;;;8.07;2.63;;;12.20;99.90;;;;;;4956817;28;20054;-90
2021/08/08 05:14:29;;;;;;;2.97;1.30;;;12.70;99.90;;;;;;5013835;28;20308;-87
2021/08/08 06:03:33;;;;;;;10.57;1.20;;;13.90;99.90;;;;;;4879006;29;20133;-86
2021/08/08 06:06:20;;;;;;;4.82;0.93;;;14.00;99.90;;;;;;4912339;28;20329;-87
2021/08/08 06:09:10;;;;;;;2.60;0.90;;;14.10;99.90;;;;;;4969555;28;20365;-88
2021/08/08 06:11:58;;;;;;;4.93;0.90;;;14.20;99.90;;;;;;4970713;28;20129;-87
2021/08/08 06:14:45;;;;;;;3.67;0.90;;;14.40;99.90;;;;;;4945131;28;20090;-88
2021/08/08 06:17:32;;;;;;;1.60;0.90;;;14.40;99.90;;;;;;4976179;28;20060;-90
2021/08/08 06:20:23;;;;;;;2.92;1.20;;;14.60;99.90;;;;;;4969394;28;20043;-89
2021/08/08 06:23:10;;;;;;;7.53;1.50;;;14.80;99.90;;;;;;4968154;28;20058;-92
2021/08/08 06:26:01;;;;;;;7.55;1.50;;;15.00;99.90;;;;;;4971834;28;20194;-92
2021/08/08 06:28:48;;;;;;;2.72;1.08;;;15.20;99.90;;;;;;4958624;28;20147;-89
2021/08/08 06:31:36;;;;;;;4.35;0.95;;;15.30;99.90;;;;;;4971803;28;20179;-90
2021/08/08 06:34:26;;;;;;;7.05;1.40;;;15.40;99.90;;;;;;4952386;28;20053;-92
2021/08/08 06:37:15;;;;;;;3.95;0.95;;;15.60;99.90;;;;;;4973128;28;20070;-90
2021/08/08 06:40:03;;;;;;;1.67;0.80;;;15.70;99.90;;;;;;4961085;28;20106;-89
2021/08/08 06:42:50;;;;;;;3.88;1.33;;;15.70;99.90;;;;;;4954892;28;20078;-89
2021/08/08 06:45:39;;;;;;;8.45;1.00;;;15.80;99.90;;;;;;4970942;28;20116;-93
2021/08/08 06:48:35;;;;;;;4.32;0.88;;;16.00;99.90;;;;;;4967587;28;20042;-93
2021/08/08 06:51:22;;;;;;;6.10;0.90;;;16.20;99.90;;;;;;4963432;28;20134;-92
2021/08/08 06:54:13;;;;;;;2.95;0.73;;;16.40;99.90;;;;;;4973949;28;20061;-92
2021/08/08 06:57:04;;;;;;;2.35;0.90;;;16.40;99.90;;;;;;4963444;28;20053;-88
2021/08/08 06:59:54;;;;;;;;;;;16.60;99.90;;;;;;4965890;28;20057;-88
2021/08/08 07:02:45;;;;;;;1.45;0.80;;;16.80;99.90;;;;;;4976920;28;19938;-92
2021/08/08 07:05:46;;;;;;;3.35;0.70;;;17.00;99.90;;;;;;4972545;28;20054;-92
2021/08/08 07:08:36;;;;;;;3.05;0.80;;;17.00;99.90;;;;;;4965993;28;20039;-90
2021/08/08 07:11:26;;;;;;;4.07;0.90;;;17.20;99.90;;;;;;4971923;28;20125;-92
2021/08/08 07:14:13;;;;;;;2.97;0.80;;;17.40;99.90;;;;;;4968093;28;20042;-89
2021/08/08 07:17:04;;;;;;;3.20;0.85;;;17.30;99.90;;;;;;4966219;28;20457;-92
2021/08/08 07:19:52;;;;;;;4.15;1.10;;;17.50;99.90;;;;;;4959622;28;20508;-90
2021/08/08 07:22:39;;;;;;;3.75;0.70;;;17.60;99.90;;;;;;4974748;28;20050;-90
2021/08/08 07:25:31;;;;;;;5.15;1.30;;;17.90;99.90;;;;;;4951590;28;20125;-93
2021/08/08 07:28:20;;;;;;;4.60;0.95;;;18.10;99.90;;;;;;4965493;28;20481;-93
2021/08/08 07:31:11;;;;;;;2.70;0.70;;;18.60;99.90;;;;;;4969557;28;20051;-93
2021/08/08 07:34:01;;;;;;;3.78;0.70;;;18.80;99.90;;;;;;4968337;28;20047;-92
2021/08/08 07:36:52;;;;;;;3.05;0.80;;;18.90;99.90;;;;;;4941552;28;20081;-93
2021/08/08 07:40:01;;;;;;;4.20;1.02;;;18.40;99.90;;;;;;4976323;28;20047;-92
2021/08/08 07:42:53;;;;;;;1.20;0.85;;;18.20;99.90;;;;;;4958763;28;20043;-92
2021/08/08 07:45:44;;;;;;;2.88;0.80;;;18.20;99.90;;;;;;4975397;28;20046;-93
2021/08/08 07:48:41;;;;;;;3.17;1.00;;;18.30;99.90;;;;;;4979441;28;20054;-92
2021/08/08 07:51:42;;;;;;;4.95;1.02;;;18.80;99.90;;;;;;4974042;28;20397;-92
2021/08/08 07:54:34;;;;;;;1.88;0.90;;;19.00;99.90;;;;;;4960675;28;20058;-92
2021/08/08 07:57:21;;;;;;;2.35;1.00;;;18.90;99.90;;;;;;4965686;28;20043;-91
2021/08/08 08:00:12;;;;;;;5.38;0.80;;;19.40;99.90;;;;;;4967499;28;20138;-92
2021/08/08 08:03:00;;;;;;;6.93;1.17;;;19.10;99.90;;;;;;4978296;28;20039;-93
2021/08/08 08:05:51;;;;;;;4.40;0.98;;;19.80;99.90;;;;;;4971770;28;20058;-92
2021/08/08 08:08:38;;;;;;;3.47;1.00;;;20.10;99.90;;;;;;4971667;28;20050;-92
2021/08/08 08:11:35;;;;;;;3.03;0.60;;;19.60;99.90;;;;;;4965805;28;20049;-94
2021/08/08 08:14:22;;;;;;;2.55;0.90;;;18.90;99.90;;;;;;4978977;28;20057;-92
2021/08/08 08:17:11;;;;;;;3.28;0.80;;;19.40;99.90;;;;;;4977810;28;20366;-92
2021/08/08 08:19:58;;;;;;;2.92;0.95;;;19.70;99.90;;;;;;4975813;28;20070;-91
2021/08/08 08:22:46;;;;;;;6.05;1.23;;;19.50;99.90;;;;;;4964222;28;20341;-92
2021/08/08 08:25:54;;;;;;;3.53;1.00;;;19.50;99.90;;;;;;4963980;28;20043;-91
2021/08/08 08:28:41;;;;;;;2.92;1.00;;;19.50;99.90;;;;;;4977169;28;20145;-90
2021/08/08 08:31:29;;;;;;;2.42;0.93;;;19.50;99.90;;;;;;4968831;28;20150;-92
2021/08/08 08:34:17;;;;;;;4.60;0.90;;;19.90;99.90;;;;;;4973018;28;20166;-90
2021/08/08 08:37:10;;;;;;;5.78;1.00;;;19.50;99.90;;;;;;4969406;28;20169;-92
2021/08/08 08:39:58;;;;;;;4.38;1.20;;;18.90;99.90;;;;;;4979462;28;20500;-90
2021/08/08 08:42:59;;;;;;;2.90;1.00;;;18.80;99.90;;;;;;4965216;28;20087;-92
2021/08/08 08:46:02;;;;;;;4.43;1.05;;;18.80;99.90;;;;;;4978733;28;20046;-91
2021/08/08 08:48:56;;;;;;;7.43;1.08;;;18.90;99.90;;;;;;4976116;28;20043;-92
2021/08/08 08:52:09;;;;;;;2.70;1.05;;;18.70;99.90;;;;;;4919198;29;20052;-91
2021/08/08 08:55:02;;;;;;;5.28;1.30;;;18.70;99.90;;;;;;4921253;29;20079;-92
2021/08/08 08:57:49;;;;;;;2.67;1.35;;;18.70;99.90;;;;;;4916624;29;20159;-92
2021/08/08 09:00:40;;;;;;;6.05;1.25;;;18.80;99.90;;;;;;4923452;29;20056;-92
2021/08/08 09:03:32;;;;;;;4.88;1.20;;;18.80;99.90;;;;;;4911460;29;20052;-92
2021/08/08 09:06:28;;;;;;;3.60;1.08;;;19.10;99.90;;;;;;4925946;29;20052;-92
2021/08/08 09:09:16;;;;;;;3.55;1.33;;;19.40;99.90;;;;;;4917479;29;20402;-92
2021/08/08 09:12:04;;;;;;;1.65;0.80;;;19.90;99.90;;;;;;4925510;29;20063;-91
2021/08/08 09:15:04;;;;;;;3.33;0.95;;;20.80;99.90;;;;;;4920421;29;20427;-92
2021/08/08 09:17:56;;;;;;;4.30;1.05;;;21.80;96.80;;;;;;4915811;29;20067;-92
2021/08/08 09:20:53;;;;;;;5.05;0.80;;;22.50;94.10;;;;;;4904010;29;20059;-91
2021/08/08 09:23:52;;;;;;;3.55;1.00;;;22.90;90.70;;;;;;4960265;28;20055;-91
2021/08/08 09:26:41;;;;;;;2.97;1.00;;;22.30;85.80;;;;;;4972683;28;20342;-92
2021/08/08 09:29:42;;;;;;;5.10;1.00;;;22.30;84.00;;;;;;4961378;28;20074;-91
2021/08/08 09:32:36;;;;;;;3.10;1.23;;;21.20;87.60;;;;;;4969999;28;20042;-92
2021/08/08 09:35:44;;;;;;;2.63;1.00;;;20.40;91.20;;;;;;4963614;28;20082;-91
2021/08/08 09:38:45;;;;;;;3.72;1.05;;;20.30;91.90;;;;;;4970350;28;20057;-92
2021/08/08 09:41:32;;;;;;;4.82;1.10;;;20.70;90.40;;;;;;4961144;28;20123;-90
2021/08/08 09:44:20;;;;;;;4.20;1.48;;;20.40;90.40;;;;;;4965135;28;20123;-92
2021/08/08 09:47:07;;;;;;;4.28;0.93;;;20.40;90.50;;;;;;4974838;28;20369;-91
2021/08/08 09:49:59;;;;;;;7.07;1.20;;;20.40;90.60;;;;;;4978525;28;20050;-91
2021/08/08 09:53:02;;;;;;;4.25;2.45;;;20.80;91.10;;;;;;4964909;28;20058;-92
2021/08/08 09:55:51;;;;;;;2.45;0.80;;;22.00;88.70;;;;;;4967785;28;20054;-91
2021/08/08 09:58:40;;;;;;;4.30;0.95;;;22.20;81.50;;;;;;4957097;28;20448;-91
2021/08/08 10:01:43;;;;;;;1.90;0.70;;;22.90;77.40;;;;;;4965121;28;20055;-92
2021/08/08 10:04:40;;;;;;;2.40;0.82;;;23.20;77.90;;;;;;4973575;28;20135;-91
2021/08/08 10:07:32;;;;;;;3.42;1.10;;;22.80;74.10;;;;;;4973342;28;20053;-91
2021/08/08 10:10:42;;;;;;;;;;;;;;;;;;;;;
2021/08/08 10:13:52;;;;;;;1.58;0.90;;;21.80;72.10;;;;;;4970116;28;20051;-93
2021/08/08 10:16:57;;;;;;;4.20;1.15;;;22.00;73.70;;;;;;4975192;28;20040;-92
2021/08/08 10:19:45;;;;;;;2.65;1.10;;;22.60;74.10;;;;;;4961024;28;20054;-91
2021/08/08 10:22:34;;;;;;;4.70;0.95;;;23.20;69.40;;;;;;4968354;28;20050;-92
2021/08/08 10:25:30;;;;;;;3.58;1.10;;;23.20;70.70;;;;;;4975887;28;20465;-92
2021/08/08 10:28:22;;;;;;;1.42;0.70;;;23.60;69.30;;;;;;4975398;28;20174;-93
2021/08/08 10:31:17;;;;;;;1.40;0.70;;;23.80;68.00;;;;;;4957188;28;20074;-91
2021/08/08 10:34:09;;;;;;;3.28;1.92;;;23.30;68.50;;;;;;4961699;28;20057;-92
2021/08/08 10:37:12;;;;;;;3.22;1.15;;;23.00;71.00;;;;;;4966879;28;20477;-92
2021/08/08 10:40:00;;;;;;;2.63;0.80;;;23.30;70.30;;;;;;4951751;29;20117;-93
2021/08/08 10:42:47;;;;;;;1.48;0.73;;;22.90;67.40;;;;;;4967442;28;20523;-92
2021/08/08 10:45:44;;;;;;;1.60;0.90;;;23.10;66.40;;;;;;4955629;28;20045;-92
2021/08/08 10:48:36;;;;;;;4.07;1.17;;;22.80;66.50;;;;;;4978054;28;20443;-91
2021/08/08 10:51:25;;;;;;;2.33;0.90;;;22.70;67.50;;;;;;4957538;28;20122;-90
2021/08/08 10:54:17;;;;;;;3.78;0.90;;;23.40;68.00;;;;;;4973916;28;20057;-92
2021/08/08 10:57:12;;;;;;;2.33;0.80;;;23.40;60.80;;;;;;4972963;28;20451;-91
2021/08/08 11:00:16;;;;;;;2.65;0.80;;;22.10;65.30;;;;;;4959614;28;20051;-92
2021/08/08 11:03:12;;;;;;;1.30;0.82;;;22.50;67.10;;;;;;4964108;28;20053;-93
2021/08/08 11:06:04;;;;;;;4.93;0.70;;;23.40;63.80;;;;;;4965422;28;20042;-93
2021/08/08 11:08:56;;;;;;;0.90;0.63;;;23.70;62.90;;;;;;4977998;28;20122;-91
2021/08/08 11:11:55;;;;;;;2.65;1.13;;;23.60;62.40;;;;;;4954372;28;20444;-90
2021/08/08 11:14:49;;;;;;;1.63;0.90;;;22.50;62.70;;;;;;4960804;28;20043;-92
2021/08/08 11:17:42;;;;;;;2.28;0.90;;;22.40;65.90;;;;;;4970009;28;20055;-91
2021/08/08 11:20:30;;;;;;;2.80;0.90;;;23.10;64.40;;;;;;4971999;28;20416;-92
2021/08/08 11:23:26;;;;;;;2.85;0.93;;;23.30;63.50;;;;;;4972076;28;20046;-92
2021/08/08 11:26:19;;;;;;;1.95;0.90;;;23.40;63.80;;;;;;4954019;28;20051;-92
2021/08/08 11:29:09;;;;;;;2.60;0.90;;;23.00;61.30;;;;;;4966178;28;20039;-92
2021/08/08 11:32:02;;;;;;;2.92;0.98;;;22.90;61.20;;;;;;4955668;29;20047;-93
2021/08/08 11:35:02;;;;;;;3.05;0.85;;;22.40;62.20;;;;;;4950006;28;20082;-92
2021/08/08 11:38:14;;;;;;;3.33;0.98;;;22.80;64.00;;;;;;4969322;28;20130;-93
2021/08/08 11:41:01;;;;;;;2.63;1.17;;;23.10;60.70;;;;;;4968064;28;20043;-91
2021/08/08 11:44:03;;;;;;;2.75;1.10;;;24.00;61.10;;;;;;4971293;28;20051;-92
2021/08/08 11:46:54;;;;;;;2.25;0.70;;;24.40;57.20;;;;;;4975742;28;20095;-93
2021/08/08 11:50:05;;;;;;;1.55;0.70;;;25.10;57.10;;;;;;4966139;28;20043;-92
2021/08/08 11:52:52;;;;;;;2.65;0.80;;;25.30;55.20;;;;;;4971702;28;20054;-92
2021/08/08 11:55:40;;;;;;;1.83;0.80;;;24.80;54.50;;;;;;4964178;28;20400;-92
2021/08/08 11:58:32;;;;;;;1.48;0.77;;;25.20;54.30;;;;;;4957596;28;20115;-92
2021/08/08 12:01:20;;;;;;;;;;;25.60;51.40;;;;;;4976876;28;20224;-94
2021/08/08 12:04:13;;;;;;;5.10;1.20;;;25.30;53.00;;;;;;4960470;28;20311;-92
2021/08/08 12:07:09;;;;;;;2.83;0.60;;;26.50;55.10;;;;;;4970393;28;20057;-91
2021/08/08 12:10:05;;;;;;;1.70;0.67;;;28.30;52.40;;;;;;4975156;28;20092;-92
2021/08/08 12:12:52;;;;;;;2.72;0.50;;;29.30;49.40;;;;;;4968181;28;20043;-92
2021/08/08 12:15:39;;;;;;;1.42;0.50;;;30.00;47.00;;;;;;4964962;28;20469;-93
2021/08/08 12:18:29;;;;;;;2.70;0.47;;;30.40;45.60;;;;;;4972767;28;20043;-93
2021/08/08 12:21:22;;;;;;;1.27;0.50;;;30.60;45.10;;;;;;4971267;28;20059;-91
2021/08/08 12:24:11;;;;;;;0.88;0.52;;;31.10;43.40;;;;;;4975557;28;20050;-91
2021/08/08 12:27:01;;;;;;;1.50;0.60;;;31.10;43.60;;;;;;4976165;28;20065;-90
2021/08/08 12:29:58;;;;;;;2.28;0.60;;;30.70;45.10;;;;;;4967425;28;20071;-92
2021/08/08 12:32:48;;;;;;;1.23;0.70;;;31.20;43.70;;;;;;4969170;28;20039;-93
2021/08/08 12:35:41;;;;;;;3.20;0.60;;;31.90;41.70;;;;;;4976418;28;20153;-91
2021/08/08 12:38:31;;;;;;;2.25;2.00;;;32.00;39.90;;;;;;4946589;29;20043;-92
2021/08/08 12:41:32;;;;;;;3.67;1.55;;;31.30;41.10;;;;;;4956165;29;20044;-92
2021/08/08 12:44:34;;;;;;;3.42;1.65;;;29.30;43.30;;;;;;4952861;29;20145;-92
2021/08/08 12:47:24;;;;;;;7.25;3.97;;;27.80;46.60;;;;;;4959794;28;20051;-93
2021/08/08 12:50:20;;;;;;;1.92;0.93;;;27.80;50.00;;;;;;4942527;28;20054;-92
2021/08/08 12:53:08;;;;;;;2.45;1.10;;;29.70;46.90;;;;;;4951389;28;20155;-92
2021/08/08 12:56:00;;;;;;;4.03;0.93;;;30.00;43.10;;;;;;4951603;29;20354;-92
2021/08/08 12:58:53;;;;;;;3.22;0.80;;;29.30;46.10;;;;;;4940498;29;20536;-93
2021/08/08 13:01:52;;;;;;;3.78;0.90;;;28.30;47.80;;;;;;4950248;29;20095;-90
2021/08/08 13:04:40;;;;;;;2.67;0.77;;;26.90;50.30;;;;;;4943393;29;20418;-90
2021/08/08 13:08:41;;;;;;;3.22;1.13;;;26.30;54.90;;;;;;4942274;29;20062;-93
2021/08/08 13:15:12;;;;;;;2.60;1.00;;;27.70;47.90;;;;;;4936630;29;20080;-91
2021/08/08 13:18:20;;;;;;;3.60;0.90;;;27.40;49.70;;;;;;4956675;28;20476;-91
2021/08/08 13:21:16;;;;;;;1.80;0.90;;;28.10;50.60;;;;;;4956293;28;20480;-94
2021/08/08 13:24:16;;;;;;;1.30;0.80;;;28.00;51.40;;;;;;4959305;28;20043;-92
2021/08/08 13:27:44;;;;;;;7.03;5.28;;;27.50;50.10;;;;;;4965591;28;20050;-92
2021/08/08 13:30:52;;;;;;;3.55;1.10;;;26.50;51.50;;;;;;4953066;28;20043;-92
2021/08/08 13:33:40;;;;;;;4.90;1.25;;;25.30;54.70;;;;;;4949767;28;20445;-90
2021/08/08 13:36:31;;;;;;;5.55;1.40;;;24.50;55.80;;;;;;4959745;28;20055;-94
2021/08/08 13:39:18;;;;;;;2.45;1.02;;;25.00;54.90;;;;;;4972062;28;20087;-92
2021/08/08 13:42:08;;;;;;;3.55;2.20;;;25.50;55.70;;;;;;4964968;28;20416;-91
2021/08/08 13:44:58;;;;;;;4.75;3.13;;;26.60;50.80;;;;;;4943146;29;20050;-91
2021/08/08 13:47:46;;;;;;;2.33;0.70;;;26.50;50.40;;;;;;4970124;28;20161;-91
2021/08/08 13:50:46;;;;;;;1.35;0.60;;;27.20;49.50;;;;;;4973751;28;20051;-91
2021/08/08 13:53:39;;;;;;;2.40;0.60;;;27.70;50.10;;;;;;4953357;28;20047;-91
2021/08/08 13:56:32;;;;;;;2.15;1.48;;;28.30;47.90;;;;;;4966118;28;20878;-88
2021/08/08 13:59:19;;;;;;;1.85;0.80;;;29.00;46.90;;;;;;4967408;28;20472;-92
2021/08/08 14:02:07;;;;;;;2.65;1.17;;;28.40;47.70;;;;;;4979945;28;20156;-92
2021/08/08 14:04:57;;;;;;;3.35;1.17;;;26.20;50.20;;;;;;4962156;28;20047;-89
2021/08/08 14:07:45;;;;;;;4.20;1.50;;;23.30;56.60;;;;;;4965834;28;20122;-88
2021/08/08 14:10:33;;;;;;;4.22;1.50;;;21.00;72.50;;;;;;4954419;28;20055;-86
2021/08/08 14:13:20;;;;;;;3.78;1.40;;;19.30;83.00;;;;;;4956601;28;20116;-89
2021/08/08 14:16:08;;;;;;;3.78;1.20;;;18.70;94.00;;;;;;4969053;28;20163;-87
2021/08/08 14:18:58;;;;;;;2.85;0.88;;;18.70;94.10;;;;;;4968865;28;20050;-87
2021/08/08 14:21:45;;;;;;;3.10;1.05;;;18.90;90.70;;;;;;4965018;28;20105;-90
2021/08/08 14:24:33;;;;;;;2.50;0.70;;;19.40;83.70;;;;;;4977738;28;20063;-88
2021/08/08 14:27:25;;;;;;;1.15;0.70;;;20.80;75.20;;;;;;4983386;28;20118;-88
2021/08/08 14:30:13;;;;;;;2.05;0.73;;;22.20;63.80;;;;;;4982339;28;20051;-87
2021/08/08 14:33:00;;;;;;;2.67;0.75;;;22.60;63.50;;;;;;4971582;28;20046;-88
2021/08/08 14:35:48;;;;;;;1.30;0.75;;;23.20;58.90;;;;;;4953466;29;20047;-88
2021/08/08 14:38:35;;;;;;;1.23;0.60;;;23.30;57.30;;;;;;4960414;28;20039;-88
2021/08/08 14:41:28;;;;;;;1.25;0.50;;;23.70;53.80;;;;;;4946361;29;20050;-87
2021/08/08 14:44:15;;;;;;;;;;;22.90;56.30;;;;;;4966928;28;20125;-89
2021/08/08 14:47:02;;;;;;;2.28;1.27;;;21.60;61.50;;;;;;4977729;28;19922;-91
2021/08/08 14:49:50;;;;;;;2.55;1.63;;;21.60;61.20;;;;;;4972320;28;20117;-87
2021/08/08 14:52:37;;;;;;;2.72;0.75;;;21.60;62.70;;;;;;4966204;28;20491;-92
2021/08/08 14:55:24;;;;;;;2.65;1.08;;;21.70;61.70;;;;;;4977940;28;20046;-92
2021/08/08 14:58:15;;;;;;;1.85;0.70;;;22.20;60.70;;;;;;4954963;28;20042;-92
2021/08/08 15:01:04;;;;;;;2.17;0.73;;;22.90;58.90;;;;;;4979621;28;20042;-93
2021/08/08 15:03:58;;;;;;;1.92;0.82;;;23.40;57.90;;;;;;4979889;28;20105;-92
2021/08/08 15:06:49;;;;;;;1.13;0.45;;;23.40;56.20;;;;;;4957736;29;20054;-92
2021/08/08 15:09:56;;;;;;;3.20;0.93;;;21.90;59.90;;;;;;4964376;28;20535;-91
2021/08/08 15:13:13;;;;;;;3.35;0.90;;;20.80;63.60;;;;;;4907384;29;20143;-92
2021/08/08 15:16:17;;;;;;;2.42;1.10;;;20.10;64.50;;;;;;4922011;29;20052;-91
2021/08/08 15:19:12;;;;;;;1.33;1.05;;;20.70;65.10;;;;;;4909618;29;20068;-92
2021/08/08 15:22:01;;;;;;;3.78;0.80;;;22.70;60.00;;;;;;4907131;29;20054;-92
2021/08/08 15:25:12;;;;;;;1.63;0.73;;;23.30;56.20;;;;;;4915736;29;20043;-92
2021/08/08 15:29:01;;;;;;;3.78;0.77;;;24.00;55.20;;;;;;4918354;29;20096;-92
2021/08/08 15:31:49;;;;;;;1.48;0.85;;;24.10;53.00;;;;;;4911568;29;20063;-92
2021/08/08 15:34:56;;;;;;;;;;;;;;;;;;;;;
2021/08/08 15:37:57;;;;;;;6.90;1.20;;;22.50;55.80;;;;;;4903533;29;20069;-91
2021/08/08 15:41:07;;;;;;;2.58;1.20;;;20.70;59.80;;;;;;4908676;29;20116;-94
2021/08/08 15:43:59;;;;;;;2.33;0.90;;;20.00;63.90;;;;;;4946953;28;20053;-92
2021/08/08 15:46:52;;;;;;;3.03;1.25;;;19.90;65.90;;;;;;4972407;28;20055;-93
2021/08/08 15:49:39;;;;;;;2.45;1.42;;;20.00;65.90;;;;;;4957263;28;20047;-93
2021/08/08 15:52:44;;;;;;;5.90;1.50;;;20.00;66.40;;;;;;4979610;28;20061;-94
2021/08/08 15:56:01;;;;;;;2.00;1.23;;;20.00;64.10;;;;;;4963307;28;20097;-94
2021/08/08 15:59:23;;;;;;;3.60;1.00;;;20.40;63.10;;;;;;4947457;28;20153;-93
2021/08/08 16:02:11;;;;;;;1.25;0.88;;;21.80;59.90;;;;;;4974722;28;20042;-93
2021/08/08 16:08:35;;;;;;;4.43;1.20;;;23.80;56.30;;;;;;4919718;29;20208;-92
2021/08/08 16:11:22;;;;;;;6.47;1.75;;;24.60;54.00;;;;;;4931275;29;20489;-93
2021/08/08 16:14:18;;;;;;;5.22;1.48;;;25.00;52.60;;;;;;4968281;28;20052;-92
2021/08/08 16:17:36;;;;;;;4.30;1.15;;;24.90;52.40;;;;;;4924723;29;20084;-91
2021/08/08 16:20:30;;;;;;;1.50;0.63;;;24.00;53.40;;;;;;4922844;29;20052;-92
2021/08/08 16:23:19;;;;;;;2.17;0.70;;;22.40;56.00;;;;;;4931533;29;20044;-92
2021/08/08 16:26:09;;;;;;;1.40;0.90;;;21.70;57.10;;;;;;4917741;29;20040;-93
2021/08/08 16:29:14;;;;;;;2.17;0.55;;;21.40;58.60;;;;;;4905018;29;20074;-93
2021/08/08 16:32:02;;;;;;;1.83;0.70;;;21.20;58.60;;;;;;4902584;29;20045;-92
2021/08/08 16:34:52;;;;;;;3.30;0.90;;;21.10;59.60;;;;;;4920962;29;20047;-92